Time;durP1;ratioP1;P1;durP2;ratioP2;P2;SDS_P1;SDS_P2;PMS_P1;PMS_P2;Temp;Humidity;BMP_temperature;BMP_pressure;BME280_temperature;BME280_humidity;BME280_pressure;Samples;Min_cycle;Max_cycle;Signal;HPM_P1;HPM_P2
2022/01/18 00:00:18;;;;;;;4.03;2.95;;;;;;;;;;7390679;19;20013;-77
2022/01/18 00:02:43;;;;;;;4.38;2.65;;;;;;;;;;7393003;19;20018;-78
2022/01/18 00:05:16;;;;;;;5.35;2.75;;;;;;;;;;7392567;19;20034;-77
2022/01/18 00:07:43;;;;;;;4.45;2.70;;;;;;;;;;7392993;19;20361;-78
2022/01/18 00:10:08;;;;;;;5.00;2.85;;;;;;;;;;7394596;19;20018;-80
2022/01/18 00:17:54;;;;;;;6.03;3.10;;;;;;;;;;7392362;19;20331;-78
2022/01/18 00:20:31;;;;;;;5.13;2.72;;;;;;;;;;7391592;19;20035;-77
2022/01/18 00:22:57;;;;;;;5.05;3.03;;;;;;;;;;7398516;19;20007;-75
2022/01/18 00:25:22;;;;;;;5.85;3.20;;;;;;;;;;7401665;19;20148;-78
2022/01/18 00:27:48;;;;;;;5.32;2.67;;;;;;;;;;7399600;19;20015;-78
2022/01/18 00:35:07;;;;;;;7.60;2.88;;;;;;;;;;7399439;19;20010;-78
2022/01/18 00:37:35;;;;;;;4.18;2.67;;;;;;;;;;7400048;19;20031;-78
2022/01/18 00:40:02;;;;;;;5.25;2.80;;;;;;;;;;7398299;19;20781;-76
2022/01/18 00:42:28;;;;;;;7.43;3.25;;;;;;;;;;7401075;19;20007;-77
2022/01/18 00:44:54;;;;;;;6.55;3.20;;;;;;;;;;7399065;19;20477;-78
2022/01/18 00:47:19;;;;;;;4.32;3.13;;;;;;;;;;7400178;19;20110;-77
2022/01/18 00:49:46;;;;;;;6.05;3.67;;;;;;;;;;7397784;19;20014;-77
2022/01/18 00:52:14;;;;;;;6.57;3.10;;;;;;;;;;7400620;19;20002;-78
2022/01/18 00:54:43;;;;;;;6.30;3.40;;;;;;;;;;7398058;19;20514;-78
2022/01/18 00:57:09;;;;;;;5.78;3.50;;;;;;;;;;7401042;19;20010;-77
2022/01/18 00:59:34;;;;;;;6.60;3.65;;;;;;;;;;7399051;19;20029;-77
2022/01/18 01:01:59;;;;;;;5.53;3.20;;;;;;;;;;7400540;19;20043;-77
2022/01/18 01:04:28;;;;;;;5.88;3.30;;;;;;;;;;7399950;19;20015;-78
2022/01/18 01:06:54;;;;;;;7.00;4.00;;;;;;;;;;7399584;19;20021;-77
2022/01/18 01:09:19;;;;;;;6.28;3.15;;;;;;;;;;7397282;19;19995;-79
2022/01/18 01:11:45;;;;;;;5.45;3.38;;;;;;;;;;7394124;19;20006;-78
2022/01/18 01:14:17;;;;;;;4.95;3.35;;;;;;;;;;7397630;19;20006;-78
2022/01/18 01:17:01;;;;;;;4.40;2.92;;;;;;;;;;7398693;19;20010;-77
2022/01/18 01:34:00;;;;;;;5.40;3.00;;;;;;;;;;7398069;19;20037;-79
2022/01/18 01:41:51;;;;;;;6.78;3.28;;;;;;;;;;7396878;19;20022;-79
2022/01/18 01:44:38;;;;;;;5.05;3.30;;;;;;;;;;7400436;19;20085;-79
2022/01/18 01:47:04;;;;;;;6.82;3.55;;;;;;;;;;7399665;19;20038;-79
2022/01/18 01:49:29;;;;;;;6.72;3.75;;;;;;;;;;7397596;19;20035;-79
2022/01/18 01:51:55;;;;;;;6.07;3.65;;;;;;;;;;7395780;19;20010;-78
2022/01/18 01:54:20;;;;;;;6.40;3.55;;;;;;;;;;7398273;19;20031;-79
2022/01/18 01:56:46;;;;;;;6.25;3.70;;;;;;;;;;7399822;19;20015;-78
2022/01/18 01:59:11;;;;;;;5.20;3.63;;;;;;;;;;7398600;19;20023;-78
2022/01/18 02:01:47;;;;;;;7.78;4.03;;;;;;;;;;7395652;19;20017;-79
2022/01/18 02:04:14;;;;;;;6.13;3.70;;;;;;;;;;7397111;19;20011;-79
2022/01/18 02:06:40;;;;;;;5.63;3.70;;;;;;;;;;7398555;19;20011;-77
2022/01/18 02:09:05;;;;;;;5.05;3.47;;;;;;;;;;7396975;19;20039;-78
2022/01/18 02:11:31;;;;;;;6.97;4.00;;;;;;;;;;7395115;19;20006;-79
2022/01/18 02:13:57;;;;;;;5.00;3.53;;;;;;;;;;7396017;19;20007;-78
2022/01/18 02:21:51;;;;;;;6.28;3.95;;;;;;;;;;7395730;19;20049;-80
2022/01/18 02:24:18;;;;;;;5.93;3.70;;;;;;;;;;7397106;19;20006;-77
2022/01/18 02:26:44;;;;;;;9.90;4.53;;;;;;;;;;7399121;19;20091;-77
2022/01/18 02:29:11;;;;;;;7.82;4.07;;;;;;;;;;7394821;19;20413;-79
2022/01/18 02:31:37;;;;;;;6.65;3.97;;;;;;;;;;7396078;19;20010;-78
2022/01/18 02:34:05;;;;;;;6.43;3.92;;;;;;;;;;7396464;19;20019;-78
2022/01/18 02:36:31;;;;;;;6.28;4.10;;;;;;;;;;7397692;19;20043;-77
2022/01/18 02:38:56;;;;;;;7.55;3.80;;;;;;;;;;7397038;19;20026;-77
2022/01/18 02:41:29;;;;;;;7.38;4.10;;;;;;;;;;7397845;19;20010;-77
2022/01/18 02:43:57;;;;;;;7.30;4.22;;;;;;;;;;7397909;19;19995;-77
2022/01/18 02:46:22;;;;;;;6.90;4.40;;;;;;;;;;7399240;19;20018;-78
2022/01/18 02:48:48;;;;;;;5.30;3.63;;;;;;;;;;7397782;19;20010;-78
2022/01/18 02:51:13;;;;;;;8.05;4.53;;;;;;;;;;7397205;19;20061;-79
2022/01/18 02:53:55;;;;;;;6.10;4.40;;;;;;;;;;7396627;19;20070;-76
2022/01/18 02:56:21;;;;;;;8.13;4.57;;;;;;;;;;7396555;19;20075;-78
2022/01/18 02:58:47;;;;;;;6.88;4.63;;;;;;;;;;7397815;19;20068;-79
2022/01/18 03:03:59;;;;;;;8.50;4.50;;;;;;;;;;7397362;19;20013;-77
2022/01/18 03:06:24;;;;;;;8.82;4.68;;;;;;;;;;7397657;19;20015;-78
2022/01/18 03:08:49;;;;;;;8.80;4.45;;;;;;;;;;7396679;19;20471;-77
2022/01/18 03:11:15;;;;;;;8.45;4.80;;;;;;;;;;7396514;19;20027;-79
2022/01/18 03:13:40;;;;;;;10.50;4.50;;;;;;;;;;7396744;19;20015;-77
2022/01/18 03:16:05;;;;;;;7.28;4.85;;;;;;;;;;7396796;19;20042;-78
2022/01/18 03:18:31;;;;;;;8.32;4.80;;;;;;;;;;7396950;19;20045;-78
2022/01/18 03:20:56;;;;;;;9.05;4.88;;;;;;;;;;7395087;19;20006;-78
2022/01/18 03:23:23;;;;;;;8.63;4.88;;;;;;;;;;7397991;19;20014;-78
2022/01/18 03:28:16;;;;;;;10.02;5.22;;;;;;;;;;7395863;19;20042;-78
2022/01/18 03:30:44;;;;;;;10.10;5.25;;;;;;;;;;7395728;19;20006;-78
2022/01/18 03:33:12;;;;;;;7.72;4.60;;;;;;;;;;7393293;19;20353;-78
2022/01/18 03:35:38;;;;;;;9.35;5.28;;;;;;;;;;7395495;19;20027;-78
2022/01/18 03:38:04;;;;;;;7.68;5.10;;;;;;;;;;7394183;19;20010;-78
2022/01/18 03:40:31;;;;;;;8.98;5.05;;;;;;;;;;7392475;19;20011;-78
2022/01/18 03:42:58;;;;;;;6.68;4.40;;;;;;;;;;7396154;19;20065;-79
2022/01/18 03:45:32;;;;;;;9.13;5.40;;;;;;;;;;7396563;19;20007;-78
2022/01/18 03:48:03;;;;;;;10.02;4.95;;;;;;;;;;7395334;19;20025;-77
2022/01/18 03:50:28;;;;;;;11.95;5.75;;;;;;;;;;7394248;19;20022;-77
2022/01/18 03:52:54;;;;;;;11.48;5.45;;;;;;;;;;7395340;19;20002;-76
2022/01/18 03:55:21;;;;;;;12.82;5.70;;;;;;;;;;7394869;19;20031;-79
2022/01/18 03:57:47;;;;;;;10.52;6.07;;;;;;;;;;7395920;19;20007;-78
2022/01/18 04:00:22;;;;;;;10.18;5.43;;;;;;;;;;7392723;19;20462;-78
2022/01/18 04:02:48;;;;;;;10.88;5.75;;;;;;;;;;7392240;19;20116;-78
2022/01/18 04:05:14;;;;;;;9.15;5.38;;;;;;;;;;7393977;19;20035;-77
2022/01/18 04:07:40;;;;;;;11.57;5.45;;;;;;;;;;7396049;19;20010;-79
2022/01/18 04:10:07;;;;;;;10.45;5.45;;;;;;;;;;7392272;19;20052;-79
2022/01/18 04:12:34;;;;;;;12.93;6.03;;;;;;;;;;7395543;19;20525;-78
2022/01/18 04:15:00;;;;;;;10.23;5.55;;;;;;;;;;7398584;19;20031;-78
2022/01/18 04:28:13;;;;;;;11.18;5.72;;;;;;;;;;7395270;19;20017;-78
2022/01/18 04:30:39;;;;;;;;;;;;;;;;;;7393080;19;20022;-78
2022/01/18 04:33:04;;;;;;;9.35;4.85;;;;;;;;;;7392084;19;19943;-78
2022/01/18 04:35:29;;;;;;;12.77;6.15;;;;;;;;;;7392939;19;20003;-78
2022/01/18 04:37:55;;;;;;;12.77;6.43;;;;;;;;;;7395029;19;20442;-79
2022/01/18 04:40:26;;;;;;;7.97;4.55;;;;;;;;;;7390784;19;20007;-79
2022/01/18 04:50:50;;;;;;;12.77;6.43;;;;;;;;;;7393299;19;20385;-78
2022/01/18 04:53:16;;;;;;;10.85;5.15;;;;;;;;;;7392181;19;20014;-78
2022/01/18 04:55:41;;;;;;;12.85;4.70;;;;;;;;;;7393425;19;20027;-78
2022/01/18 04:58:07;;;;;;;8.05;4.65;;;;;;;;;;7345547;19;20010;-79
2022/01/18 05:00:32;;;;;;;12.30;5.28;;;;;;;;;;7392229;19;20483;-78
2022/01/18 05:02:57;;;;;;;11.80;5.03;;;;;;;;;;7392276;19;20006;-79
2022/01/18 05:05:26;;;;;;;8.15;4.72;;;;;;;;;;7392858;19;20010;-78
2022/01/18 05:07:53;;;;;;;11.60;5.18;;;;;;;;;;7394842;19;20074;-77
2022/01/18 05:10:21;;;;;;;9.02;5.10;;;;;;;;;;7399165;19;20011;-79
2022/01/18 05:12:50;;;;;;;8.52;4.22;;;;;;;;;;7398340;19;20074;-79
2022/01/18 05:23:04;;;;;;;7.80;3.80;;;;;;;;;;7400381;19;20137;-79
2022/01/18 05:25:29;;;;;;;6.45;3.55;;;;;;;;;;7401551;19;20030;-78
2022/01/18 05:27:59;;;;;;;7.75;4.40;;;;;;;;;;7396062;19;20017;-81
2022/01/18 05:30:26;;;;;;;8.00;4.15;;;;;;;;;;7397906;19;20753;-78
2022/01/18 05:32:51;;;;;;;8.80;4.75;;;;;;;;;;7385226;19;20450;-80
2022/01/18 05:35:17;;;;;;;8.88;4.72;;;;;;;;;;7397272;19;20014;-79
2022/01/18 05:37:42;;;;;;;8.38;4.75;;;;;;;;;;7398356;19;20014;-80
2022/01/18 05:40:08;;;;;;;10.38;4.50;;;;;;;;;;7397011;19;20035;-78
2022/01/18 05:42:33;;;;;;;5.93;4.03;;;;;;;;;;7401349;19;20011;-77
2022/01/18 05:44:58;;;;;;;8.73;4.88;;;;;;;;;;7396518;19;20011;-78
2022/01/18 05:47:24;;;;;;;8.40;4.50;;;;;;;;;;7398353;19;20095;-76
2022/01/18 05:49:50;;;;;;;8.00;4.40;;;;;;;;;;7396376;19;20014;-79
2022/01/18 05:52:15;;;;;;;11.43;5.28;;;;;;;;;;7398152;19;20018;-79
2022/01/18 05:54:40;;;;;;;8.43;4.68;;;;;;;;;;7400178;19;20015;-79
2022/01/18 05:57:06;;;;;;;9.80;5.05;;;;;;;;;;7401936;19;20050;-78
2022/01/18 05:59:37;;;;;;;9.43;4.80;;;;;;;;;;7399656;19;20050;-80
2022/01/18 06:02:14;;;;;;;9.32;5.35;;;;;;;;;;7395855;19;20067;-79
2022/01/18 06:07:24;;;;;;;8.63;5.50;;;;;;;;;;7401400;19;20517;-79
2022/01/18 06:09:49;;;;;;;8.25;4.53;;;;;;;;;;7398832;19;20007;-79
2022/01/18 06:12:15;;;;;;;10.30;4.90;;;;;;;;;;7394119;19;20009;-79
2022/01/18 06:14:41;;;;;;;6.70;4.18;;;;;;;;;;7393455;19;20018;-78
2022/01/18 06:17:06;;;;;;;8.35;4.28;;;;;;;;;;7393250;19;20002;-79
2022/01/18 06:19:31;;;;;;;11.02;4.75;;;;;;;;;;7387921;19;20014;-79
2022/01/18 06:21:57;;;;;;;8.93;4.88;;;;;;;;;;7390312;19;20036;-79
2022/01/18 06:24:22;;;;;;;7.32;4.43;;;;;;;;;;7393110;19;20171;-78
2022/01/18 06:26:47;;;;;;;8.60;4.85;;;;;;;;;;7389149;19;20047;-78
2022/01/18 06:29:12;;;;;;;11.77;5.40;;;;;;;;;;7389327;19;20130;-79
2022/01/18 06:31:38;;;;;;;7.32;4.25;;;;;;;;;;7390397;19;20774;-78
2022/01/18 06:34:03;;;;;;;7.60;4.22;;;;;;;;;;7388068;19;20010;-79
2022/01/18 06:36:28;;;;;;;9.93;4.63;;;;;;;;;;7391343;19;20114;-78
2022/01/18 06:38:54;;;;;;;11.90;5.40;;;;;;;;;;7387096;19;20070;-78
2022/01/18 06:41:20;;;;;;;5.95;3.88;;;;;;;;;;7389777;19;20003;-80
2022/01/18 06:43:46;;;;;;;7.32;3.40;;;;;;;;;;7391486;19;20027;-78
2022/01/18 06:46:11;;;;;;;6.35;4.20;;;;;;;;;;7390349;19;20006;-80
2022/01/18 06:48:37;;;;;;;7.65;4.38;;;;;;;;;;7387619;19;20081;-78
2022/01/18 06:51:02;;;;;;;5.93;3.83;;;;;;;;;;7386005;19;20003;-79
2022/01/18 06:53:31;;;;;;;8.95;5.45;;;;;;;;;;7391552;19;20097;-79
2022/01/18 06:55:57;;;;;;;9.73;5.20;;;;;;;;;;7396191;19;20035;-79
2022/01/18 06:58:22;;;;;;;10.55;5.38;;;;;;;;;;7390252;19;20014;-80
2022/01/18 07:00:48;;;;;;;9.13;5.13;;;;;;;;;;7393910;19;20006;-80
2022/01/18 07:03:13;;;;;;;8.55;5.15;;;;;;;;;;7395419;19;20086;-81
2022/01/18 07:05:39;;;;;;;6.63;4.45;;;;;;;;;;7390271;19;19998;-79
2022/01/18 07:08:04;;;;;;;7.82;4.63;;;;;;;;;;7388869;19;20033;-81
2022/01/18 07:10:31;;;;;;;9.70;5.15;;;;;;;;;;7388899;19;20421;-80
2022/01/18 07:12:58;;;;;;;10.75;5.90;;;;;;;;;;7386528;19;20645;-79
2022/01/18 07:15:23;;;;;;;9.38;5.38;;;;;;;;;;7388036;19;20474;-79
2022/01/18 07:17:49;;;;;;;9.60;5.38;;;;;;;;;;7386301;19;20035;-80
2022/01/18 07:20:14;;;;;;;13.43;4.78;;;;;;;;;;7387726;19;20039;-82
2022/01/18 07:22:42;;;;;;;7.28;4.53;;;;;;;;;;7388756;19;20010;-80
2022/01/18 07:25:14;;;;;;;6.95;4.35;;;;;;;;;;7392383;19;20011;-80
2022/01/18 07:27:42;;;;;;;9.57;5.10;;;;;;;;;;7387125;19;20012;-82
2022/01/18 07:30:09;;;;;;;9.50;5.45;;;;;;;;;;7387416;19;20007;-82
2022/01/18 07:32:35;;;;;;;9.80;5.85;;;;;;;;;;7385821;19;20835;-81
2022/01/18 07:35:02;;;;;;;10.70;6.53;;;;;;;;;;7388057;19;20026;-82
2022/01/18 07:37:30;;;;;;;10.85;5.88;;;;;;;;;;7386165;19;20026;-83
2022/01/18 07:39:56;;;;;;;11.48;5.43;;;;;;;;;;7384058;19;20035;-81
2022/01/18 07:42:23;;;;;;;13.15;6.07;;;;;;;;;;7386923;19;20379;-82
2022/01/18 07:44:48;;;;;;;11.68;6.20;;;;;;;;;;7387458;19;20046;-82
2022/01/18 07:47:14;;;;;;;12.38;6.72;;;;;;;;;;7386880;19;20011;-82
2022/01/18 07:50:43;;;;;;;9.48;5.40;;;;;;;;;;7385279;19;20329;-83
2022/01/18 07:53:11;;;;;;;10.48;4.95;;;;;;;;;;7382445;19;20043;-83
2022/01/18 07:55:39;;;;;;;11.27;5.75;;;;;;;;;;7388184;19;20002;-82
2022/01/18 07:58:04;;;;;;;9.60;5.28;;;;;;;;;;7383541;19;20010;-80
2022/01/18 08:00:29;;;;;;;10.18;6.05;;;;;;;;;;7386712;19;20015;-81
2022/01/18 08:02:55;;;;;;;9.77;6.22;;;;;;;;;;7386828;19;20118;-82
2022/01/18 08:05:21;;;;;;;8.45;5.47;;;;;;;;;;7388352;19;20414;-80
2022/01/18 08:07:47;;;;;;;8.20;4.63;;;;;;;;;;7388346;19;20733;-82
2022/01/18 08:10:16;;;;;;;10.63;5.43;;;;;;;;;;7385855;19;19998;-83
2022/01/18 08:12:42;;;;;;;13.35;6.15;;;;;;;;;;7386342;19;20169;-81
2022/01/18 08:15:17;;;;;;;8.05;5.05;;;;;;;;;;7384955;19;20327;-81
2022/01/18 08:17:46;;;;;;;;;;;;;;;;;;7385350;19;20042;-81
2022/01/18 08:20:13;;;;;;;9.05;4.88;;;;;;;;;;7382475;19;19918;-82
2022/01/18 08:22:43;;;;;;;12.02;6.13;;;;;;;;;;7384385;19;20014;-82
2022/01/18 08:25:09;;;;;;;6.90;4.55;;;;;;;;;;7385752;19;20017;-80
2022/01/18 08:27:35;;;;;;;8.63;5.60;;;;;;;;;;7387843;19;20387;-81
2022/01/18 08:30:00;;;;;;;9.68;6.03;;;;;;;;;;7384171;19;20018;-82
2022/01/18 08:32:27;;;;;;;10.82;6.38;;;;;;;;;;7384012;19;20489;-83
2022/01/18 08:34:52;;;;;;;12.23;7.78;;;;;;;;;;7382774;19;20014;-82
2022/01/18 08:37:18;;;;;;;9.77;6.78;;;;;;;;;;7382538;19;19999;-82
2022/01/18 08:39:43;;;;;;;12.82;6.35;;;;;;;;;;7384909;19;20010;-79
2022/01/18 08:42:09;;;;;;;10.68;6.68;;;;;;;;;;7387942;19;20025;-80
2022/01/18 08:44:43;;;;;;;10.63;6.10;;;;;;;;;;7394042;19;20427;-80
2022/01/18 08:47:11;;;;;;;13.85;7.13;;;;;;;;;;7393387;19;20136;-80
2022/01/18 08:49:37;;;;;;;11.32;6.60;;;;;;;;;;7392503;19;20047;-80
2022/01/18 08:52:05;;;;;;;10.60;5.90;;;;;;;;;;7393068;19;20006;-78
2022/01/18 08:54:31;;;;;;;9.18;5.57;;;;;;;;;;7394291;19;20350;-78
2022/01/18 08:56:56;;;;;;;11.70;6.18;;;;;;;;;;7393368;19;20015;-78
2022/01/18 08:59:22;;;;;;;8.50;5.07;;;;;;;;;;7395222;19;20027;-80
2022/01/18 09:01:50;;;;;;;9.10;5.55;;;;;;;;;;7390482;19;20013;-80
2022/01/18 09:04:21;;;;;;;10.00;6.15;;;;;;;;;;7394749;19;20006;-81
2022/01/18 09:06:50;;;;;;;9.63;6.30;;;;;;;;;;7394973;19;20014;-81
2022/01/18 09:09:17;;;;;;;11.30;6.00;;;;;;;;;;7393836;19;20022;-81
2022/01/18 09:11:51;;;;;;;12.50;6.43;;;;;;;;;;7394695;19;20014;-82
2022/01/18 09:14:41;;;;;;;13.05;6.90;;;;;;;;;;7391971;19;20010;-80
2022/01/18 09:17:56;;;;;;;10.68;6.07;;;;;;;;;;7396576;19;20006;-82
2022/01/18 09:21:27;;;;;;;16.15;7.47;;;;;;;;;;7393877;19;20044;-81
2022/01/18 09:24:15;;;;;;;10.27;6.30;;;;;;;;;;7395715;19;20071;-80
2022/01/18 09:26:41;;;;;;;13.70;6.57;;;;;;;;;;7392394;19;20094;-81
2022/01/18 09:29:23;;;;;;;14.40;7.28;;;;;;;;;;7396875;19;20007;-81
2022/01/18 09:32:01;;;;;;;12.43;6.57;;;;;;;;;;7392212;19;20556;-81
2022/01/18 09:34:27;;;;;;;11.70;6.40;;;;;;;;;;7391674;19;20011;-80
2022/01/18 09:41:32;;;;;;;10.82;6.07;;;;;;;;;;7391805;19;19998;-82
2022/01/18 09:47:40;;;;;;;10.38;5.38;;;;;;;;;;7391422;19;20455;-83
2022/01/18 09:50:08;;;;;;;12.20;6.45;;;;;;;;;;7388857;19;20006;-81
2022/01/18 09:52:33;;;;;;;10.38;5.65;;;;;;;;;;7397750;19;20041;-81
2022/01/18 09:54:59;;;;;;;10.52;5.55;;;;;;;;;;7395448;19;20025;-81
2022/01/18 09:57:25;;;;;;;13.93;6.65;;;;;;;;;;7396173;19;20062;-82
2022/01/18 09:59:51;;;;;;;10.05;6.35;;;;;;;;;;7392202;19;20501;-80
2022/01/18 10:02:49;;;;;;;10.30;6.65;;;;;;;;;;7395729;19;20078;-83
2022/01/18 10:05:34;;;;;;;12.45;6.90;;;;;;;;;;7393140;19;20017;-82
2022/01/18 10:08:07;;;;;;;11.57;6.63;;;;;;;;;;7393999;19;20019;-80
2022/01/18 10:11:36;;;;;;;11.07;6.15;;;;;;;;;;7390781;19;20114;-81
2022/01/18 10:17:46;;;;;;;10.75;6.13;;;;;;;;;;7390885;19;20059;-82
2022/01/18 10:20:19;;;;;;;9.98;5.90;;;;;;;;;;7381853;19;20014;-81
2022/01/18 10:23:06;;;;;;;10.80;6.47;;;;;;;;;;7391043;19;20034;-83
2022/01/18 10:25:40;;;;;;;10.52;6.72;;;;;;;;;;7390192;19;20014;-83
2022/01/18 10:28:51;;;;;;;11.03;6.57;;;;;;;;;;7389802;19;20488;-82
2022/01/18 10:37:54;;;;;;;;;;;;;;;;;;;;;
2022/01/18 10:40:26;;;;;;;11.68;6.30;;;;;;;;;;7388850;19;20015;-81
2022/01/18 10:43:04;;;;;;;9.65;5.47;;;;;;;;;;7391953;19;20082;-82
2022/01/18 10:45:34;;;;;;;9.85;5.82;;;;;;;;;;7393911;19;20023;-81
2022/01/18 10:48:15;;;;;;;11.27;6.35;;;;;;;;;;7392896;19;20011;-79
2022/01/18 10:50:43;;;;;;;11.00;5.82;;;;;;;;;;7391451;19;20032;-80
2022/01/18 10:53:14;;;;;;;10.35;5.32;;;;;;;;;;7392385;19;20006;-80
2022/01/18 10:55:39;;;;;;;9.68;4.50;;;;;;;;;;7395789;19;20013;-79
2022/01/18 10:58:18;;;;;;;9.18;4.80;;;;;;;;;;7395604;19;20007;-80
2022/01/18 11:00:43;;;;;;;8.50;4.60;;;;;;;;;;7385363;19;20018;-71
2022/01/18 11:03:10;;;;;;;10.25;4.65;;;;;;;;;;7380857;19;20044;-69
2022/01/18 11:05:38;;;;;;;11.07;4.50;;;;;;;;;;7375445;19;20360;-73
2022/01/18 11:08:06;;;;;;;8.95;5.32;;;;;;;;;;7380419;19;20110;-72
2022/01/18 11:10:42;;;;;;;8.77;4.88;;;;;;;;;;7380899;19;20045;-72
2022/01/18 11:13:17;;;;;;;10.68;5.35;;;;;;;;;;7378362;19;20022;-72
2022/01/18 11:15:48;;;;;;;9.27;5.38;;;;;;;;;;7373052;19;20483;-74
2022/01/18 11:18:17;;;;;;;10.30;5.80;;;;;;;;;;7374740;19;20069;-71
2022/01/18 11:20:48;;;;;;;9.15;5.25;;;;;;;;;;7378258;19;19994;-72
2022/01/18 11:23:15;;;;;;;9.05;4.97;;;;;;;;;;7383819;19;20035;-72
2022/01/18 11:25:40;;;;;;;10.77;5.18;;;;;;;;;;7376230;19;20002;-73
2022/01/18 11:28:08;;;;;;;7.63;4.00;;;;;;;;;;7378288;19;20021;-73
2022/01/18 11:30:46;;;;;;;9.40;4.05;;;;;;;;;;7379521;19;20010;-73
2022/01/18 11:33:14;;;;;;;9.98;3.85;;;;;;;;;;7377787;19;20006;-72
2022/01/18 11:35:45;;;;;;;8.63;3.97;;;;;;;;;;7377487;19;20256;-76
2022/01/18 11:38:22;;;;;;;12.90;3.97;;;;;;;;;;7378393;19;20007;-73
2022/01/18 11:40:57;;;;;;;9.25;4.30;;;;;;;;;;7381533;19;20002;-72
2022/01/18 11:43:44;;;;;;;7.72;3.88;;;;;;;;;;7382947;19;20015;-71
2022/01/18 11:46:37;;;;;;;8.85;4.00;;;;;;;;;;7379061;19;20010;-71
2022/01/18 11:49:13;;;;;;;7.35;4.00;;;;;;;;;;7379549;19;20014;-72
2022/01/18 11:52:03;;;;;;;5.72;3.28;;;;;;;;;;7380354;19;20014;-72
2022/01/18 11:54:35;;;;;;;6.88;3.72;;;;;;;;;;7375043;19;20011;-74
2022/01/18 11:57:04;;;;;;;10.38;3.67;;;;;;;;;;7383184;19;20006;-71
2022/01/18 11:59:38;;;;;;;7.95;4.35;;;;;;;;;;7380612;19;20010;-72
2022/01/18 12:02:05;;;;;;;9.87;4.33;;;;;;;;;;7384002;19;20048;-73
2022/01/18 12:04:47;;;;;;;8.15;4.47;;;;;;;;;;7380761;19;20149;-72
2022/01/18 12:07:34;;;;;;;9.70;4.35;;;;;;;;;;7376664;19;20268;-72
2022/01/18 12:10:31;;;;;;;7.90;3.08;;;;;;;;;;7377280;19;20022;-72
2022/01/18 12:13:06;;;;;;;8.65;2.90;;;;;;;;;;7379907;19;20475;-71
2022/01/18 12:15:36;;;;;;;8.38;2.35;;;;;;;;;;7379020;19;20007;-72
2022/01/18 12:18:04;;;;;;;5.35;2.70;;;;;;;;;;7381104;19;20035;-73
2022/01/18 12:20:37;;;;;;;5.78;1.88;;;;;;;;;;7385739;19;20014;-72
2022/01/18 12:23:06;;;;;;;5.10;1.70;;;;;;;;;;7391956;19;20010;-72
2022/01/18 12:25:35;;;;;;;3.72;1.55;;;;;;;;;;7389907;19;20007;-73
2022/01/18 12:28:50;;;;;;;6.03;1.52;;;;;;;;;;7389802;19;20467;-73
2022/01/18 12:37:27;;;;;;;3.92;1.40;;;;;;;;;;7390418;19;20003;-72
2022/01/18 12:39:57;;;;;;;3.83;1.35;;;;;;;;;;7385648;19;20491;-72
2022/01/18 12:45:20;;;;;;;3.00;1.25;;;;;;;;;;7388918;19;20007;-74
2022/01/18 12:47:52;;;;;;;5.75;1.58;;;;;;;;;;7387970;19;20030;-70
2022/01/18 12:50:23;;;;;;;3.55;1.40;;;;;;;;;;7380742;19;20444;-72
2022/01/18 12:53:01;;;;;;;5.20;1.40;;;;;;;;;;7387529;19;20189;-73
2022/01/18 12:55:32;;;;;;;5.80;1.40;;;;;;;;;;7388339;19;20472;-73
2022/01/18 12:58:09;;;;;;;7.68;1.50;;;;;;;;;;7387940;19;20597;-72
2022/01/18 13:00:38;;;;;;;5.85;1.63;;;;;;;;;;7384976;19;20359;-72
2022/01/18 13:03:03;;;;;;;2.13;1.15;;;;;;;;;;7390864;19;20496;-72
2022/01/18 13:05:33;;;;;;;4.00;1.60;;;;;;;;;;7387113;19;20006;-76
2022/01/18 13:08:00;;;;;;;7.38;1.33;;;;;;;;;;7390585;19;20010;-72
2022/01/18 13:10:36;;;;;;;5.15;2.15;;;;;;;;;;7382761;19;20499;-72
2022/01/18 13:13:03;;;;;;;3.38;1.30;;;;;;;;;;7386526;19;20015;-73
2022/01/18 13:15:52;;;;;;;4.82;1.40;;;;;;;;;;7384218;19;20063;-73
2022/01/18 13:24:03;;;;;;;9.77;2.45;;;;;;;;;;7353687;19;20293;-73
2022/01/18 13:26:37;;;;;;;3.50;1.33;;;;;;;;;;7383638;19;20035;-72
2022/01/18 13:29:21;;;;;;;3.53;1.70;;;;;;;;;;7387239;19;20376;-71
2022/01/18 13:32:00;;;;;;;5.30;1.55;;;;;;;;;;7386889;19;20373;-72
2022/01/18 13:34:34;;;;;;;7.75;1.23;;;;;;;;;;7384230;19;20002;-72
2022/01/18 13:37:03;;;;;;;2.33;1.55;;;;;;;;;;7385404;19;20490;-72
2022/01/18 13:39:32;;;;;;;4.30;1.60;;;;;;;;;;7385646;19;20038;-72
2022/01/18 13:42:00;;;;;;;4.65;1.55;;;;;;;;;;7386943;19;20006;-71
2022/01/18 13:44:26;;;;;;;6.00;1.45;;;;;;;;;;7389167;19;20080;-71
2022/01/18 13:46:52;;;;;;;5.63;1.75;;;;;;;;;;7385642;19;20085;-71
2022/01/18 13:49:23;;;;;;;8.18;2.03;;;;;;;;;;7381161;19;20003;-71
2022/01/18 13:52:09;;;;;;;2.67;1.27;;;;;;;;;;7385925;19;20011;-71
2022/01/18 13:54:52;;;;;;;11.73;2.20;;;;;;;;;;7383767;19;20002;-71
2022/01/18 13:57:19;;;;;;;6.32;2.03;;;;;;;;;;7208944;19;3009056;-70
2022/01/18 13:59:47;;;;;;;7.93;2.40;;;;;;;;;;7382957;19;20507;-71
2022/01/18 14:02:18;;;;;;;4.22;1.90;;;;;;;;;;7385442;19;20146;-71
2022/01/18 14:04:45;;;;;;;8.98;1.75;;;;;;;;;;7386810;19;20471;-72
2022/01/18 14:07:11;;;;;;;5.65;2.13;;;;;;;;;;7384605;19;19999;-72
2022/01/18 14:09:37;;;;;;;5.40;2.10;;;;;;;;;;7383539;19;20018;-72
2022/01/18 14:12:03;;;;;;;3.80;1.48;;;;;;;;;;7383866;19;20010;-71
2022/01/18 14:14:31;;;;;;;4.10;1.23;;;;;;;;;;7382450;19;20032;-71
2022/01/18 14:17:06;;;;;;;4.13;1.75;;;;;;;;;;7383562;19;20014;-71
2022/01/18 14:19:40;;;;;;;3.65;1.58;;;;;;;;;;7383865;19;20013;-73
2022/01/18 14:22:18;;;;;;;5.47;1.75;;;;;;;;;;7383892;19;20030;-72
2022/01/18 14:24:46;;;;;;;3.72;2.10;;;;;;;;;;7384513;19;20006;-72
2022/01/18 14:27:15;;;;;;;6.03;1.67;;;;;;;;;;7382911;19;20374;-74
2022/01/18 14:29:40;;;;;;;5.63;1.60;;;;;;;;;;7383250;19;20041;-72
2022/01/18 14:32:27;;;;;;;3.85;1.40;;;;;;;;;;7385037;19;20467;-72
2022/01/18 14:34:58;;;;;;;3.63;1.33;;;;;;;;;;7388790;19;20013;-72
2022/01/18 14:37:48;;;;;;;4.78;1.33;;;;;;;;;;7386655;19;19999;-72
2022/01/18 14:40:21;;;;;;;2.65;1.33;;;;;;;;;;7379328;19;20078;-73
2022/01/18 14:42:51;;;;;;;6.07;1.55;;;;;;;;;;7386377;19;20037;-72
2022/01/18 14:45:33;;;;;;;4.85;1.67;;;;;;;;;;7386756;19;20317;-72
2022/01/18 14:48:01;;;;;;;2.88;1.23;;;;;;;;;;7387016;19;20362;-72
2022/01/18 14:50:27;;;;;;;3.33;1.38;;;;;;;;;;7384240;19;20013;-73
2022/01/18 14:52:54;;;;;;;5.47;0.93;;;;;;;;;;7383551;19;19999;-71
2022/01/18 14:55:22;;;;;;;4.07;1.15;;;;;;;;;;7386900;19;20011;-72
2022/01/18 14:57:48;;;;;;;4.38;1.27;;;;;;;;;;7386425;19;20500;-72
2022/01/18 15:00:16;;;;;;;2.58;1.30;;;;;;;;;;7382950;19;20010;-72
2022/01/18 15:02:42;;;;;;;4.43;1.10;;;;;;;;;;7386844;19;20006;-73
2022/01/18 15:05:08;;;;;;;4.82;1.10;;;;;;;;;;7387503;19;20014;-72
2022/01/18 15:07:35;;;;;;;3.78;1.33;;;;;;;;;;7383587;19;20471;-73
2022/01/18 15:10:03;;;;;;;5.53;1.42;;;;;;;;;;7381687;19;20018;-72
2022/01/18 15:12:29;;;;;;;5.45;1.10;;;;;;;;;;7383009;19;20326;-70
2022/01/18 15:14:54;;;;;;;4.20;1.13;;;;;;;;;;7384472;19;20080;-71
2022/01/18 15:17:19;;;;;;;4.18;0.98;;;;;;;;;;7384353;19;20002;-72
2022/01/18 15:19:44;;;;;;;5.93;1.38;;;;;;;;;;7382999;19;20010;-72
2022/01/18 15:22:10;;;;;;;3.03;1.08;;;;;;;;;;7381062;19;20000;-72
2022/01/18 15:24:38;;;;;;;2.35;0.82;;;;;;;;;;7386042;19;20375;-72
2022/01/18 15:27:03;;;;;;;2.60;1.15;;;;;;;;;;7383017;19;20087;-72
2022/01/18 15:29:30;;;;;;;4.10;1.38;;;;;;;;;;7381351;19;20015;-72
2022/01/18 15:31:55;;;;;;;4.85;1.35;;;;;;;;;;7381775;19;20006;-72
2022/01/18 15:34:21;;;;;;;2.30;0.95;;;;;;;;;;7381491;19;20035;-72
2022/01/18 15:36:47;;;;;;;5.85;1.20;;;;;;;;;;7380996;19;20373;-72
2022/01/18 15:39:13;;;;;;;6.55;1.65;;;;;;;;;;7380142;19;19998;-71
2022/01/18 15:41:39;;;;;;;5.18;1.25;;;;;;;;;;7383412;19;20688;-73
2022/01/18 15:44:05;;;;;;;4.60;1.20;;;;;;;;;;7380508;19;20554;-73
2022/01/18 15:46:30;;;;;;;4.30;1.00;;;;;;;;;;7382178;19;20040;-73
2022/01/18 15:48:55;;;;;;;3.22;1.10;;;;;;;;;;7382074;19;20006;-72
2022/01/18 15:51:21;;;;;;;5.10;1.40;;;;;;;;;;7382703;19;19999;-71
2022/01/18 15:53:47;;;;;;;3.25;0.90;;;;;;;;;;7381047;19;20766;-73
2022/01/18 15:56:17;;;;;;;2.53;1.25;;;;;;;;;;7382047;19;20017;-75
2022/01/18 15:58:42;;;;;;;4.68;1.02;;;;;;;;;;7381143;19;20051;-72
2022/01/18 16:01:08;;;;;;;6.82;1.20;;;;;;;;;;7382990;19;21360;-73
2022/01/18 16:03:34;;;;;;;5.75;1.58;;;;;;;;;;7381156;19;20035;-71
2022/01/18 16:05:59;;;;;;;6.55;1.60;;;;;;;;;;7377531;19;20073;-75
2022/01/18 16:08:24;;;;;;;7.93;1.20;;;;;;;;;;7378935;19;20010;-73
2022/01/18 16:10:51;;;;;;;2.65;1.08;;;;;;;;;;7383211;19;20011;-72
2022/01/18 16:13:16;;;;;;;5.93;1.58;;;;;;;;;;7377682;19;20478;-73
2022/01/18 16:15:41;;;;;;;5.07;1.35;;;;;;;;;;7384955;19;20069;-73
2022/01/18 16:18:07;;;;;;;4.50;1.30;;;;;;;;;;7380497;19;20024;-72
2022/01/18 16:20:33;;;;;;;7.30;1.23;;;;;;;;;;7399183;19;20325;-73
2022/01/18 16:22:58;;;;;;;6.10;1.20;;;;;;;;;;7385818;19;20026;-73
2022/01/18 16:25:24;;;;;;;7.55;1.65;;;;;;;;;;7385063;19;20010;-72
2022/01/18 16:27:50;;;;;;;6.10;2.08;;;;;;;;;;7381998;19;20002;-72
2022/01/18 16:30:15;;;;;;;4.97;1.60;;;;;;;;;;7379831;19;20007;-73
2022/01/18 16:32:43;;;;;;;3.83;1.73;;;;;;;;;;7382749;19;20014;-73
2022/01/18 16:35:10;;;;;;;6.45;2.17;;;;;;;;;;7384253;19;20003;-73
2022/01/18 16:37:36;;;;;;;2.92;1.23;;;;;;;;;;7379953;19;20010;-72